Graham, Mississippi
Current Conditions -  °F | °C
As of 6:53 PM on Tuesday 21 Oct 2014 (Local Time) from KTUP Reporting Station
Clear Clear  
Wind Chill: 64°   Ceiling: Unl
Heat Index: 64°   Visibility: 10mi
Dew Point: 49°   Wind: 3mph
Humidity: 58%   Direction: 30°NNE
Pressure: 30.04"   Gusts: NA
Location:  34.5357°N, 88.6348°W
Report Text: KTUP 212353Z AUTO 03003KT 10SM CLR 18/09 A3004 RMK AO2 SLP169 T01780094 10250 20172 53004 PWINO
Loading
Personal Weather Stations






























Interactive Weather Map
Tropical Storm Tracking
New forecast layout! Learn more

10-Day Weather Forecast

Advertisements
Track Severe Weather on mobile